sensor_id;sensor_type;location;lat;lon;timestamp;P1;durP1;ratioP1;P2;durP2;ratioP2
44989;SDS011;30723;51.206;3.326;2022-11-15T00:00:18;78.28;;;37.85;;
44989;SDS011;30723;51.206;3.326;2022-11-15T00:02:43;75.88;;;36.05;;
44989;SDS011;30723;51.206;3.326;2022-11-15T00:05:09;79.72;;;36.67;;
44989;SDS011;30723;51.206;3.326;2022-11-15T00:07:35;75.03;;;34.85;;
44989;SDS011;30723;51.206;3.326;2022-11-15T00:10:01;76.07;;;36.10;;
44989;SDS011;30723;51.206;3.326;2022-11-15T00:12:27;70.88;;;34.38;;
44989;SDS011;30723;51.206;3.326;2022-11-15T00:14:53;79.97;;;35.20;;
44989;SDS011;30723;51.206;3.326;2022-11-15T00:17:19;71.75;;;34.83;;
44989;SDS011;30723;51.206;3.326;2022-11-15T00:19:45;72.93;;;33.88;;
44989;SDS011;30723;51.206;3.326;2022-11-15T00:22:10;69.18;;;33.05;;
44989;SDS011;30723;51.206;3.326;2022-11-15T00:24:36;72.47;;;33.38;;
44989;SDS011;30723;51.206;3.326;2022-11-15T00:27:02;66.97;;;33.17;;
44989;SDS011;30723;51.206;3.326;2022-11-15T00:29:27;70.85;;;33.97;;
44989;SDS011;30723;51.206;3.326;2022-11-15T00:31:53;74.75;;;33.22;;
44989;SDS011;30723;51.206;3.326;2022-11-15T00:34:19;65.28;;;32.33;;
44989;SDS011;30723;51.206;3.326;2022-11-15T00:36:45;71.20;;;31.58;;
44989;SDS011;30723;51.206;3.326;2022-11-15T00:39:10;62.38;;;31.52;;
44989;SDS011;30723;51.206;3.326;2022-11-15T00:41:36;61.25;;;31.25;;
44989;SDS011;30723;51.206;3.326;2022-11-15T00:44:02;70.00;;;32.03;;
44989;SDS011;30723;51.206;3.326;2022-11-15T00:46:27;66.20;;;32.60;;
44989;SDS011;30723;51.206;3.326;2022-11-15T00:48:53;67.22;;;32.28;;
44989;SDS011;30723;51.206;3.326;2022-11-15T00:51:19;62.70;;;32.28;;
44989;SDS011;30723;51.206;3.326;2022-11-15T00:53:45;65.32;;;32.33;;
44989;SDS011;30723;51.206;3.326;2022-11-15T00:56:10;64.63;;;31.88;;
44989;SDS011;30723;51.206;3.326;2022-11-15T00:58:36;65.63;;;30.70;;
44989;SDS011;30723;51.206;3.326;2022-11-15T01:01:13;63.33;;;30.58;;
44989;SDS011;30723;51.206;3.326;2022-11-15T01:03:39;68.18;;;28.88;;
44989;SDS011;30723;51.206;3.326;2022-11-15T01:06:07;61.38;;;29.85;;
44989;SDS011;30723;51.206;3.326;2022-11-15T01:08:33;60.42;;;28.75;;
44989;SDS011;30723;51.206;3.326;2022-11-15T01:11:06;55.90;;;27.58;;
44989;SDS011;30723;51.206;3.326;2022-11-15T01:13:35;54.30;;;27.90;;
44989;SDS011;30723;51.206;3.326;2022-11-15T01:16:09;57.58;;;28.08;;
44989;SDS011;30723;51.206;3.326;2022-11-15T01:18:37;54.72;;;26.83;;
44989;SDS011;30723;51.206;3.326;2022-11-15T01:21:07;50.70;;;26.88;;
44989;SDS011;30723;51.206;3.326;2022-11-15T01:26:04;57.13;;;24.17;;
44989;SDS011;30723;51.206;3.326;2022-11-15T01:28:32;58.05;;;25.35;;
44989;SDS011;30723;51.206;3.326;2022-11-15T01:31:03;52.97;;;23.35;;
44989;SDS011;30723;51.206;3.326;2022-11-15T01:33:33;47.67;;;23.48;;
44989;SDS011;30723;51.206;3.326;2022-11-15T01:36:03;47.45;;;23.40;;
44989;SDS011;30723;51.206;3.326;2022-11-15T01:38:33;52.83;;;23.00;;
44989;SDS011;30723;51.206;3.326;2022-11-15T01:40:59;49.67;;;22.75;;
44989;SDS011;30723;51.206;3.326;2022-11-15T01:43:25;54.28;;;22.00;;
44989;SDS011;30723;51.206;3.326;2022-11-15T01:45:56;52.72;;;23.23;;
44989;SDS011;30723;51.206;3.326;2022-11-15T01:48:34;43.80;;;20.92;;
44989;SDS011;30723;51.206;3.326;2022-11-15T01:51:00;49.22;;;23.60;;
44989;SDS011;30723;51.206;3.326;2022-11-15T01:53:29;46.63;;;22.15;;
44989;SDS011;30723;51.206;3.326;2022-11-15T01:55:58;48.60;;;22.13;;
44989;SDS011;30723;51.206;3.326;2022-11-15T01:58:30;54.10;;;21.73;;
44989;SDS011;30723;51.206;3.326;2022-11-15T02:00:56;46.10;;;22.08;;
44989;SDS011;30723;51.206;3.326;2022-11-15T02:03:22;43.47;;;20.98;;
44989;SDS011;30723;51.206;3.326;2022-11-15T02:08:19;42.50;;;19.13;;
44989;SDS011;30723;51.206;3.326;2022-11-15T02:10:45;42.83;;;19.05;;
44989;SDS011;30723;51.206;3.326;2022-11-15T02:13:13;43.63;;;18.27;;
44989;SDS011;30723;51.206;3.326;2022-11-15T02:15:42;40.25;;;17.17;;
44989;SDS011;30723;51.206;3.326;2022-11-15T02:21:14;40.20;;;15.48;;
44989;SDS011;30723;51.206;3.326;2022-11-15T02:32:22;27.55;;;13.38;;
44989;SDS011;30723;51.206;3.326;2022-11-15T02:35:02;36.70;;;15.13;;
44989;SDS011;30723;51.206;3.326;2022-11-15T02:37:39;28.95;;;12.68;;
44989;SDS011;30723;51.206;3.326;2022-11-15T02:43:00;25.85;;;12.68;;
44989;SDS011;30723;51.206;3.326;2022-11-15T02:46:02;26.88;;;10.68;;
44989;SDS011;30723;51.206;3.326;2022-11-15T02:48:38;27.70;;;11.85;;
44989;SDS011;30723;51.206;3.326;2022-11-15T02:51:04;30.83;;;10.75;;
44989;SDS011;30723;51.206;3.326;2022-11-15T02:53:31;17.77;;;8.68;;
44989;SDS011;30723;51.206;3.326;2022-11-15T02:55:57;28.58;;;11.15;;
44989;SDS011;30723;51.206;3.326;2022-11-15T02:58:38;26.83;;;9.35;;
44989;SDS011;30723;51.206;3.326;2022-11-15T03:09:04;19.27;;;8.45;;
44989;SDS011;30723;51.206;3.326;2022-11-15T03:15:29;25.83;;;8.55;;
44989;SDS011;30723;51.206;3.326;2022-11-15T03:18:02;32.97;;;10.35;;
44989;SDS011;30723;51.206;3.326;2022-11-15T03:20:35;27.10;;;9.82;;
44989;SDS011;30723;51.206;3.326;2022-11-15T03:23:04;26.13;;;10.52;;
44989;SDS011;30723;51.206;3.326;2022-11-15T03:25:33;29.02;;;10.07;;
44989;SDS011;30723;51.206;3.326;2022-11-15T03:28:03;23.38;;;9.85;;
44989;SDS011;30723;51.206;3.326;2022-11-15T03:30:32;26.95;;;9.93;;
44989;SDS011;30723;51.206;3.326;2022-11-15T03:33:01;21.08;;;10.07;;
44989;SDS011;30723;51.206;3.326;2022-11-15T03:35:30;24.30;;;9.23;;
44989;SDS011;30723;51.206;3.326;2022-11-15T03:38:09;25.88;;;8.45;;
44989;SDS011;30723;51.206;3.326;2022-11-15T03:41:16;22.60;;;9.15;;
44989;SDS011;30723;51.206;3.326;2022-11-15T03:46:31;21.45;;;7.90;;
44989;SDS011;30723;51.206;3.326;2022-11-15T03:49:07;22.05;;;7.88;;
44989;SDS011;30723;51.206;3.326;2022-11-15T03:51:40;22.75;;;7.75;;
44989;SDS011;30723;51.206;3.326;2022-11-15T03:54:06;21.35;;;7.20;;
44989;SDS011;30723;51.206;3.326;2022-11-15T03:56:32;18.92;;;7.97;;
44989;SDS011;30723;51.206;3.326;2022-11-15T03:58:57;16.25;;;7.43;;
44989;SDS011;30723;51.206;3.326;2022-11-15T04:01:23;17.10;;;6.10;;
44989;SDS011;30723;51.206;3.326;2022-11-15T04:03:49;20.17;;;6.88;;
44989;SDS011;30723;51.206;3.326;2022-11-15T04:06:15;17.42;;;6.88;;
44989;SDS011;30723;51.206;3.326;2022-11-15T04:08:41;18.83;;;7.00;;
44989;SDS011;30723;51.206;3.326;2022-11-15T04:11:06;18.52;;;7.57;;
44989;SDS011;30723;51.206;3.326;2022-11-15T04:13:32;20.33;;;6.78;;
44989;SDS011;30723;51.206;3.326;2022-11-15T04:15:58;22.55;;;6.75;;
44989;SDS011;30723;51.206;3.326;2022-11-15T04:18:24;20.55;;;6.70;;
44989;SDS011;30723;51.206;3.326;2022-11-15T04:20:49;21.52;;;7.53;;
44989;SDS011;30723;51.206;3.326;2022-11-15T04:23:34;20.58;;;7.18;;
44989;SDS011;30723;51.206;3.326;2022-11-15T04:26:31;19.70;;;7.75;;
44989;SDS011;30723;51.206;3.326;2022-11-15T04:28:57;17.02;;;8.02;;
44989;SDS011;30723;51.206;3.326;2022-11-15T04:31:42;22.70;;;8.40;;
44989;SDS011;30723;51.206;3.326;2022-11-15T04:34:08;19.92;;;8.27;;
44989;SDS011;30723;51.206;3.326;2022-11-15T04:36:33;19.65;;;8.27;;
44989;SDS011;30723;51.206;3.326;2022-11-15T04:39:18;16.98;;;8.02;;
44989;SDS011;30723;51.206;3.326;2022-11-15T04:41:43;23.65;;;8.15;;
44989;SDS011;30723;51.206;3.326;2022-11-15T04:44:09;21.23;;;8.57;;
44989;SDS011;30723;51.206;3.326;2022-11-15T04:46:35;14.23;;;6.93;;
44989;SDS011;30723;51.206;3.326;2022-11-15T04:49:00;19.20;;;7.47;;
44989;SDS011;30723;51.206;3.326;2022-11-15T04:51:27;13.95;;;6.88;;
44989;SDS011;30723;51.206;3.326;2022-11-15T04:53:53;20.02;;;6.85;;
44989;SDS011;30723;51.206;3.326;2022-11-15T04:56:19;17.00;;;6.93;;
44989;SDS011;30723;51.206;3.326;2022-11-15T04:58:44;17.30;;;7.43;;
44989;SDS011;30723;51.206;3.326;2022-11-15T05:01:11;22.38;;;7.55;;
44989;SDS011;30723;51.206;3.326;2022-11-15T05:03:39;19.60;;;7.32;;
44989;SDS011;30723;51.206;3.326;2022-11-15T05:06:24;17.30;;;7.57;;
44989;SDS011;30723;51.206;3.326;2022-11-15T05:08:50;23.55;;;7.72;;
44989;SDS011;30723;51.206;3.326;2022-11-15T05:11:16;22.90;;;8.13;;
44989;SDS011;30723;51.206;3.326;2022-11-15T05:13:42;19.98;;;8.38;;
44989;SDS011;30723;51.206;3.326;2022-11-15T05:16:08;17.13;;;9.63;;
44989;SDS011;30723;51.206;3.326;2022-11-15T05:18:33;25.13;;;11.45;;
44989;SDS011;30723;51.206;3.326;2022-11-15T05:21:06;18.42;;;11.07;;
44989;SDS011;30723;51.206;3.326;2022-11-15T05:23:34;20.13;;;9.35;;
44989;SDS011;30723;51.206;3.326;2022-11-15T05:26:00;16.35;;;8.65;;
44989;SDS011;30723;51.206;3.326;2022-11-15T05:28:26;22.77;;;9.18;;
44989;SDS011;30723;51.206;3.326;2022-11-15T05:30:52;23.90;;;9.27;;
44989;SDS011;30723;51.206;3.326;2022-11-15T05:33:18;18.30;;;9.90;;
44989;SDS011;30723;51.206;3.326;2022-11-15T05:35:48;27.10;;;10.07;;
44989;SDS011;30723;51.206;3.326;2022-11-15T05:38:19;24.40;;;10.23;;
44989;SDS011;30723;51.206;3.326;2022-11-15T05:40:44;21.30;;;10.00;;
44989;SDS011;30723;51.206;3.326;2022-11-15T05:43:10;21.13;;;10.45;;
44989;SDS011;30723;51.206;3.326;2022-11-15T05:45:36;19.55;;;10.52;;
44989;SDS011;30723;51.206;3.326;2022-11-15T05:48:04;20.15;;;9.85;;
44989;SDS011;30723;51.206;3.326;2022-11-15T05:50:34;20.92;;;9.90;;
44989;SDS011;30723;51.206;3.326;2022-11-15T05:53:03;16.75;;;9.27;;
44989;SDS011;30723;51.206;3.326;2022-11-15T05:55:31;25.65;;;9.52;;
44989;SDS011;30723;51.206;3.326;2022-11-15T05:57:57;23.02;;;10.20;;
44989;SDS011;30723;51.206;3.326;2022-11-15T06:00:23;26.95;;;10.15;;
44989;SDS011;30723;51.206;3.326;2022-11-15T06:02:48;24.73;;;10.75;;
44989;SDS011;30723;51.206;3.326;2022-11-15T06:05:14;19.75;;;11.05;;
44989;SDS011;30723;51.206;3.326;2022-11-15T06:07:40;21.10;;;10.30;;
44989;SDS011;30723;51.206;3.326;2022-11-15T06:10:06;20.30;;;10.85;;
44989;SDS011;30723;51.206;3.326;2022-11-15T06:12:32;25.58;;;11.10;;
44989;SDS011;30723;51.206;3.326;2022-11-15T06:14:58;29.65;;;11.73;;
44989;SDS011;30723;51.206;3.326;2022-11-15T06:17:23;20.15;;;10.65;;
44989;SDS011;30723;51.206;3.326;2022-11-15T06:19:49;20.20;;;10.15;;
44989;SDS011;30723;51.206;3.326;2022-11-15T06:22:15;17.85;;;10.75;;
44989;SDS011;30723;51.206;3.326;2022-11-15T06:24:40;17.77;;;10.18;;
44989;SDS011;30723;51.206;3.326;2022-11-15T06:27:06;30.40;;;10.88;;
44989;SDS011;30723;51.206;3.326;2022-11-15T06:29:32;20.67;;;9.38;;
44989;SDS011;30723;51.206;3.326;2022-11-15T06:31:58;18.20;;;9.07;;
44989;SDS011;30723;51.206;3.326;2022-11-15T06:34:23;18.65;;;9.85;;
44989;SDS011;30723;51.206;3.326;2022-11-15T06:36:49;18.65;;;10.00;;
44989;SDS011;30723;51.206;3.326;2022-11-15T06:39:15;21.35;;;9.60;;
44989;SDS011;30723;51.206;3.326;2022-11-15T06:41:40;23.25;;;10.77;;
44989;SDS011;30723;51.206;3.326;2022-11-15T06:44:06;20.70;;;10.85;;
44989;SDS011;30723;51.206;3.326;2022-11-15T06:46:32;24.75;;;11.20;;
44989;SDS011;30723;51.206;3.326;2022-11-15T06:48:58;25.30;;;11.95;;
44989;SDS011;30723;51.206;3.326;2022-11-15T06:51:23;25.08;;;12.90;;
44989;SDS011;30723;51.206;3.326;2022-11-15T06:53:49;21.52;;;13.18;;
44989;SDS011;30723;51.206;3.326;2022-11-15T06:56:15;26.80;;;14.25;;
44989;SDS011;30723;51.206;3.326;2022-11-15T06:58:40;30.65;;;13.70;;
44989;SDS011;30723;51.206;3.326;2022-11-15T07:01:08;21.70;;;13.50;;
44989;SDS011;30723;51.206;3.326;2022-11-15T07:03:35;25.00;;;14.15;;
44989;SDS011;30723;51.206;3.326;2022-11-15T07:06:02;24.08;;;14.02;;
44989;SDS011;30723;51.206;3.326;2022-11-15T07:08:28;29.15;;;13.88;;
44989;SDS011;30723;51.206;3.326;2022-11-15T07:10:54;32.35;;;14.65;;
44989;SDS011;30723;51.206;3.326;2022-11-15T07:13:25;24.52;;;13.35;;
44989;SDS011;30723;51.206;3.326;2022-11-15T07:15:52;28.08;;;14.32;;
44989;SDS011;30723;51.206;3.326;2022-11-15T07:18:18;27.83;;;14.93;;
44989;SDS011;30723;51.206;3.326;2022-11-15T07:20:44;26.52;;;14.88;;
44989;SDS011;30723;51.206;3.326;2022-11-15T07:23:09;33.83;;;14.43;;
44989;SDS011;30723;51.206;3.326;2022-11-15T07:25:35;26.77;;;15.10;;
44989;SDS011;30723;51.206;3.326;2022-11-15T07:28:01;31.15;;;14.93;;
44989;SDS011;30723;51.206;3.326;2022-11-15T07:30:27;30.45;;;15.27;;
44989;SDS011;30723;51.206;3.326;2022-11-15T07:32:54;28.70;;;14.65;;
44989;SDS011;30723;51.206;3.326;2022-11-15T07:35:25;38.08;;;15.20;;
44989;SDS011;30723;51.206;3.326;2022-11-15T07:37:59;39.38;;;16.77;;
44989;SDS011;30723;51.206;3.326;2022-11-15T07:40:27;34.95;;;14.98;;
44989;SDS011;30723;51.206;3.326;2022-11-15T07:43:00;29.48;;;14.73;;
44989;SDS011;30723;51.206;3.326;2022-11-15T07:45:27;36.53;;;14.40;;
44989;SDS011;30723;51.206;3.326;2022-11-15T07:47:54;30.52;;;14.40;;
44989;SDS011;30723;51.206;3.326;2022-11-15T07:50:21;32.65;;;14.88;;
44989;SDS011;30723;51.206;3.326;2022-11-15T07:52:52;28.58;;;13.90;;
44989;SDS011;30723;51.206;3.326;2022-11-15T07:55:20;30.75;;;13.57;;
44989;SDS011;30723;51.206;3.326;2022-11-15T07:57:47;30.75;;;14.05;;
44989;SDS011;30723;51.206;3.326;2022-11-15T08:00:13;27.75;;;13.85;;
44989;SDS011;30723;51.206;3.326;2022-11-15T08:02:39;28.52;;;12.95;;
44989;SDS011;30723;51.206;3.326;2022-11-15T08:05:05;23.98;;;12.65;;
44989;SDS011;30723;51.206;3.326;2022-11-15T08:07:31;31.48;;;13.25;;
44989;SDS011;30723;51.206;3.326;2022-11-15T08:09:57;27.17;;;13.27;;
44989;SDS011;30723;51.206;3.326;2022-11-15T08:12:23;21.63;;;12.20;;
44989;SDS011;30723;51.206;3.326;2022-11-15T08:14:49;21.30;;;10.80;;
44989;SDS011;30723;51.206;3.326;2022-11-15T08:17:15;18.15;;;10.05;;
44989;SDS011;30723;51.206;3.326;2022-11-15T08:19:41;17.30;;;10.40;;
44989;SDS011;30723;51.206;3.326;2022-11-15T08:22:07;18.80;;;10.18;;
44989;SDS011;30723;51.206;3.326;2022-11-15T08:24:32;19.58;;;10.05;;
44989;SDS011;30723;51.206;3.326;2022-11-15T08:26:59;20.27;;;9.02;;
44989;SDS011;30723;51.206;3.326;2022-11-15T08:29:24;19.42;;;9.23;;
44989;SDS011;30723;51.206;3.326;2022-11-15T08:31:51;19.77;;;8.93;;
44989;SDS011;30723;51.206;3.326;2022-11-15T08:34:19;12.85;;;7.55;;
44989;SDS011;30723;51.206;3.326;2022-11-15T08:36:45;15.85;;;8.38;;
44989;SDS011;30723;51.206;3.326;2022-11-15T08:39:11;13.18;;;7.90;;
44989;SDS011;30723;51.206;3.326;2022-11-15T08:41:37;14.63;;;7.18;;
44989;SDS011;30723;51.206;3.326;2022-11-15T08:44:03;16.92;;;6.50;;
44989;SDS011;30723;51.206;3.326;2022-11-15T08:46:29;21.40;;;7.15;;
44989;SDS011;30723;51.206;3.326;2022-11-15T08:48:55;17.23;;;7.75;;
44989;SDS011;30723;51.206;3.326;2022-11-15T08:51:21;18.35;;;6.43;;
44989;SDS011;30723;51.206;3.326;2022-11-15T08:53:47;13.20;;;5.45;;
44989;SDS011;30723;51.206;3.326;2022-11-15T08:56:13;13.68;;;5.88;;
44989;SDS011;30723;51.206;3.326;2022-11-15T08:58:40;11.27;;;5.38;;
44989;SDS011;30723;51.206;3.326;2022-11-15T09:01:06;11.38;;;5.03;;
44989;SDS011;30723;51.206;3.326;2022-11-15T09:03:39;9.77;;;4.88;;
44989;SDS011;30723;51.206;3.326;2022-11-15T09:06:06;16.33;;;4.88;;
44989;SDS011;30723;51.206;3.326;2022-11-15T09:08:32;13.75;;;5.20;;
44989;SDS011;30723;51.206;3.326;2022-11-15T09:10:57;12.85;;;4.10;;
44989;SDS011;30723;51.206;3.326;2022-11-15T09:13:23;8.63;;;3.85;;
44989;SDS011;30723;51.206;3.326;2022-11-15T09:15:49;14.35;;;4.93;;
44989;SDS011;30723;51.206;3.326;2022-11-15T09:18:15;9.98;;;4.05;;
44989;SDS011;30723;51.206;3.326;2022-11-15T09:20:40;11.57;;;3.10;;
44989;SDS011;30723;51.206;3.326;2022-11-15T09:23:06;11.07;;;3.05;;
44989;SDS011;30723;51.206;3.326;2022-11-15T09:25:32;11.00;;;3.30;;
44989;SDS011;30723;51.206;3.326;2022-11-15T09:27:58;13.68;;;2.65;;
44989;SDS011;30723;51.206;3.326;2022-11-15T09:30:24;5.13;;;2.08;;
44989;SDS011;30723;51.206;3.326;2022-11-15T09:32:50;8.18;;;2.47;;
44989;SDS011;30723;51.206;3.326;2022-11-15T09:35:16;12.45;;;2.45;;
44989;SDS011;30723;51.206;3.326;2022-11-15T09:37:42;6.22;;;2.05;;
44989;SDS011;30723;51.206;3.326;2022-11-15T09:40:09;8.90;;;1.92;;
44989;SDS011;30723;51.206;3.326;2022-11-15T09:53:11;13.55;;;2.35;;
44989;SDS011;30723;51.206;3.326;2022-11-15T09:55:47;13.93;;;2.10;;
44989;SDS011;30723;51.206;3.326;2022-11-15T09:58:36;8.60;;;1.70;;
44989;SDS011;30723;51.206;3.326;2022-11-15T10:04:13;7.68;;;1.92;;
44989;SDS011;30723;51.206;3.326;2022-11-15T10:06:41;13.38;;;1.80;;
44989;SDS011;30723;51.206;3.326;2022-11-15T10:09:17;8.75;;;1.80;;
44989;SDS011;30723;51.206;3.326;2022-11-15T10:11:49;6.50;;;1.77;;
44989;SDS011;30723;51.206;3.326;2022-11-15T10:14:18;7.88;;;1.90;;
44989;SDS011;30723;51.206;3.326;2022-11-15T10:24:39;4.63;;;1.58;;
44989;SDS011;30723;51.206;3.326;2022-11-15T10:27:09;6.30;;;1.83;;
44989;SDS011;30723;51.206;3.326;2022-11-15T10:29:42;6.13;;;1.63;;
44989;SDS011;30723;51.206;3.326;2022-11-15T10:32:10;10.55;;;1.95;;
44989;SDS011;30723;51.206;3.326;2022-11-15T10:34:37;15.75;;;2.00;;
44989;SDS011;30723;51.206;3.326;2022-11-15T10:37:03;12.95;;;1.85;;
44989;SDS011;30723;51.206;3.326;2022-11-15T10:39:28;10.15;;;2.15;;
44989;SDS011;30723;51.206;3.326;2022-11-15T10:41:54;9.45;;;1.90;;
44989;SDS011;30723;51.206;3.326;2022-11-15T10:44:21;10.93;;;2.00;;
44989;SDS011;30723;51.206;3.326;2022-11-15T10:49:31;9.85;;;2.00;;
44989;SDS011;30723;51.206;3.326;2022-11-15T10:54:36;12.07;;;2.10;;
44989;SDS011;30723;51.206;3.326;2022-11-15T10:57:07;6.53;;;1.80;;
44989;SDS011;30723;51.206;3.326;2022-11-15T11:00:04;7.80;;;2.15;;
44989;SDS011;30723;51.206;3.326;2022-11-15T11:02:31;6.53;;;1.83;;
44989;SDS011;30723;51.206;3.326;2022-11-15T11:05:04;8.18;;;1.90;;
44989;SDS011;30723;51.206;3.326;2022-11-15T11:07:32;6.53;;;2.15;;
44989;SDS011;30723;51.206;3.326;2022-11-15T11:10:03;8.80;;;2.50;;
44989;SDS011;30723;51.206;3.326;2022-11-15T11:12:46;6.63;;;1.95;;
44989;SDS011;30723;51.206;3.326;2022-11-15T11:15:12;8.98;;;2.33;;
44989;SDS011;30723;51.206;3.326;2022-11-15T11:17:51;6.20;;;1.63;;
44989;SDS011;30723;51.206;3.326;2022-11-15T11:34:58;9.88;;;2.30;;
44989;SDS011;30723;51.206;3.326;2022-11-15T11:42:55;6.40;;;1.60;;
44989;SDS011;30723;51.206;3.326;2022-11-15T11:45:37;8.45;;;1.80;;
44989;SDS011;30723;51.206;3.326;2022-11-15T11:50:52;11.15;;;2.40;;
44989;SDS011;30723;51.206;3.326;2022-11-15T11:53:42;6.43;;;2.00;;
44989;SDS011;30723;51.206;3.326;2022-11-15T11:56:25;12.68;;;2.22;;
44989;SDS011;30723;51.206;3.326;2022-11-15T11:59:02;7.78;;;1.67;;
44989;SDS011;30723;51.206;3.326;2022-11-15T12:01:42;5.50;;;1.80;;
44989;SDS011;30723;51.206;3.326;2022-11-15T12:07:03;7.30;;;2.00;;
44989;SDS011;30723;51.206;3.326;2022-11-15T12:17:40;16.25;;;2.38;;
44989;SDS011;30723;51.206;3.326;2022-11-15T12:20:17;8.95;;;2.10;;
44989;SDS011;30723;51.206;3.326;2022-11-15T12:25:54;12.40;;;1.80;;
44989;SDS011;30723;51.206;3.326;2022-11-15T12:28:34;6.65;;;1.83;;
44989;SDS011;30723;51.206;3.326;2022-11-15T12:31:50;7.57;;;2.03;;
44989;SDS011;30723;51.206;3.326;2022-11-15T12:34:00;7.03;;;1.83;;
44989;SDS011;30723;51.206;3.326;2022-11-15T12:36:38;6.10;;;1.67;;
44989;SDS011;30723;51.206;3.326;2022-11-15T12:39:10;5.20;;;2.10;;
44989;SDS011;30723;51.206;3.326;2022-11-15T12:41:37;7.78;;;1.92;;
44989;SDS011;30723;51.206;3.326;2022-11-15T12:44:10;5.95;;;1.98;;
44989;SDS011;30723;51.206;3.326;2022-11-15T13:02:24;6.15;;;2.03;;
44989;SDS011;30723;51.206;3.326;2022-11-15T13:20:16;9.25;;;1.92;;
44989;SDS011;30723;51.206;3.326;2022-11-15T13:33:36;7.28;;;1.95;;
44989;SDS011;30723;51.206;3.326;2022-11-15T13:39:03;9.05;;;2.22;;
44989;SDS011;30723;51.206;3.326;2022-11-15T13:41:32;6.88;;;2.00;;
44989;SDS011;30723;51.206;3.326;2022-11-15T13:44:00;5.10;;;2.22;;
44989;SDS011;30723;51.206;3.326;2022-11-15T13:46:27;7.32;;;2.30;;
44989;SDS011;30723;51.206;3.326;2022-11-15T13:48:56;8.88;;;2.90;;
44989;SDS011;30723;51.206;3.326;2022-11-15T13:51:26;7.80;;;2.15;;
44989;SDS011;30723;51.206;3.326;2022-11-15T14:02:34;9.43;;;2.22;;
44989;SDS011;30723;51.206;3.326;2022-11-15T14:07:27;5.35;;;2.28;;
44989;SDS011;30723;51.206;3.326;2022-11-15T14:09:54;5.75;;;2.95;;
44989;SDS011;30723;51.206;3.326;2022-11-15T14:12:25;5.78;;;2.72;;
44989;SDS011;30723;51.206;3.326;2022-11-15T14:15:02;13.75;;;4.05;;
44989;SDS011;30723;51.206;3.326;2022-11-15T14:17:54;7.55;;;2.58;;
44989;SDS011;30723;51.206;3.326;2022-11-15T14:22:56;4.30;;;2.97;;
44989;SDS011;30723;51.206;3.326;2022-11-15T14:25:24;7.43;;;2.95;;
44989;SDS011;30723;51.206;3.326;2022-11-15T14:30:55;9.18;;;3.88;;
44989;SDS011;30723;51.206;3.326;2022-11-15T14:38:40;7.88;;;3.55;;
44989;SDS011;30723;51.206;3.326;2022-11-15T14:41:20;14.93;;;6.50;;
44989;SDS011;30723;51.206;3.326;2022-11-15T14:43:47;8.48;;;3.63;;
44989;SDS011;30723;51.206;3.326;2022-11-15T14:46:13;9.70;;;4.40;;
44989;SDS011;30723;51.206;3.326;2022-11-15T14:48:39;7.50;;;5.38;;
44989;SDS011;30723;51.206;3.326;2022-11-15T14:51:12;6.47;;;3.92;;
44989;SDS011;30723;51.206;3.326;2022-11-15T14:53:39;7.20;;;3.70;;
44989;SDS011;30723;51.206;3.326;2022-11-15T14:56:06;9.98;;;4.95;;
44989;SDS011;30723;51.206;3.326;2022-11-15T14:58:32;6.38;;;3.40;;
44989;SDS011;30723;51.206;3.326;2022-11-15T15:00:58;7.20;;;3.70;;
44989;SDS011;30723;51.206;3.326;2022-11-15T15:03:24;10.25;;;3.60;;
44989;SDS011;30723;51.206;3.326;2022-11-15T15:05:51;11.10;;;4.40;;
44989;SDS011;30723;51.206;3.326;2022-11-15T15:08:17;9.60;;;3.78;;
44989;SDS011;30723;51.206;3.326;2022-11-15T15:10:43;7.05;;;4.25;;
44989;SDS011;30723;51.206;3.326;2022-11-15T15:13:20;7.82;;;4.10;;
44989;SDS011;30723;51.206;3.326;2022-11-15T15:15:47;7.47;;;3.83;;
44989;SDS011;30723;51.206;3.326;2022-11-15T15:18:14;9.20;;;4.22;;
44989;SDS011;30723;51.206;3.326;2022-11-15T15:20:41;5.47;;;4.07;;
44989;SDS011;30723;51.206;3.326;2022-11-15T15:23:15;6.50;;;4.63;;
44989;SDS011;30723;51.206;3.326;2022-11-15T15:25:42;7.07;;;4.65;;
44989;SDS011;30723;51.206;3.326;2022-11-15T15:28:08;8.07;;;4.75;;
44989;SDS011;30723;51.206;3.326;2022-11-15T15:30:34;9.50;;;4.95;;
44989;SDS011;30723;51.206;3.326;2022-11-15T15:33:00;7.25;;;4.72;;
44989;SDS011;30723;51.206;3.326;2022-11-15T15:35:29;10.10;;;4.70;;
44989;SDS011;30723;51.206;3.326;2022-11-15T15:37:57;6.57;;;4.57;;
44989;SDS011;30723;51.206;3.326;2022-11-15T15:40:24;8.52;;;5.20;;
44989;SDS011;30723;51.206;3.326;2022-11-15T15:42:50;9.57;;;5.63;;
44989;SDS011;30723;51.206;3.326;2022-11-15T15:45:17;26.65;;;6.60;;
44989;SDS011;30723;51.206;3.326;2022-11-15T15:47:43;10.70;;;5.85;;
44989;SDS011;30723;51.206;3.326;2022-11-15T15:50:26;11.45;;;5.90;;
44989;SDS011;30723;51.206;3.326;2022-11-15T15:52:54;8.90;;;5.90;;
44989;SDS011;30723;51.206;3.326;2022-11-15T15:55:22;7.28;;;5.95;;
44989;SDS011;30723;51.206;3.326;2022-11-15T15:57:48;10.25;;;5.82;;
44989;SDS011;30723;51.206;3.326;2022-11-15T16:00:14;6.57;;;4.93;;
44989;SDS011;30723;51.206;3.326;2022-11-15T16:02:41;8.88;;;6.82;;
44989;SDS011;30723;51.206;3.326;2022-11-15T16:05:08;8.80;;;6.60;;
44989;SDS011;30723;51.206;3.326;2022-11-15T16:07:35;11.43;;;8.20;;
44989;SDS011;30723;51.206;3.326;2022-11-15T16:10:01;14.48;;;9.00;;
44989;SDS011;30723;51.206;3.326;2022-11-15T16:14:54;26.95;;;17.63;;
44989;SDS011;30723;51.206;3.326;2022-11-15T16:17:21;55.25;;;32.63;;
44989;SDS011;30723;51.206;3.326;2022-11-15T16:19:49;75.97;;;50.25;;
44989;SDS011;30723;51.206;3.326;2022-11-15T16:22:15;20.80;;;15.48;;
44989;SDS011;30723;51.206;3.326;2022-11-15T16:24:41;17.95;;;12.20;;
44989;SDS011;30723;51.206;3.326;2022-11-15T16:27:12;19.17;;;14.25;;
44989;SDS011;30723;51.206;3.326;2022-11-15T16:29:42;122.55;;;58.95;;
44989;SDS011;30723;51.206;3.326;2022-11-15T16:32:09;63.50;;;33.10;;
44989;SDS011;30723;51.206;3.326;2022-11-15T16:34:34;44.90;;;25.30;;
44989;SDS011;30723;51.206;3.326;2022-11-15T16:37:00;64.57;;;34.97;;
44989;SDS011;30723;51.206;3.326;2022-11-15T16:39:26;72.05;;;36.47;;
44989;SDS011;30723;51.206;3.326;2022-11-15T16:41:55;24.00;;;16.67;;
44989;SDS011;30723;51.206;3.326;2022-11-15T16:44:21;25.60;;;16.10;;
44989;SDS011;30723;51.206;3.326;2022-11-15T16:46:50;30.38;;;21.63;;
44989;SDS011;30723;51.206;3.326;2022-11-15T16:49:16;27.77;;;19.65;;
44989;SDS011;30723;51.206;3.326;2022-11-15T16:51:47;24.65;;;14.88;;
44989;SDS011;30723;51.206;3.326;2022-11-15T16:54:14;29.80;;;20.77;;
44989;SDS011;30723;51.206;3.326;2022-11-15T16:56:40;28.77;;;19.55;;
44989;SDS011;30723;51.206;3.326;2022-11-15T16:59:06;19.15;;;14.05;;
44989;SDS011;30723;51.206;3.326;2022-11-15T17:01:36;29.83;;;20.60;;
44989;SDS011;30723;51.206;3.326;2022-11-15T17:04:11;66.03;;;38.17;;
44989;SDS011;30723;51.206;3.326;2022-11-15T17:06:39;27.30;;;19.17;;
44989;SDS011;30723;51.206;3.326;2022-11-15T17:09:13;20.85;;;14.70;;
44989;SDS011;30723;51.206;3.326;2022-11-15T17:11:41;12.40;;;8.70;;
44989;SDS011;30723;51.206;3.326;2022-11-15T17:14:07;15.45;;;9.80;;
44989;SDS011;30723;51.206;3.326;2022-11-15T17:16:34;12.98;;;9.93;;
44989;SDS011;30723;51.206;3.326;2022-11-15T17:19:02;14.52;;;10.20;;
44989;SDS011;30723;51.206;3.326;2022-11-15T17:21:29;15.07;;;9.00;;
44989;SDS011;30723;51.206;3.326;2022-11-15T17:23:54;12.10;;;8.38;;
44989;SDS011;30723;51.206;3.326;2022-11-15T17:26:20;12.70;;;9.85;;